createdAt,value
2022-10-12T00:01:41.016Z,101292.31
2022-10-12T00:04:12.270Z,101291.44
2022-10-12T00:06:40.904Z,101290.75
2022-10-12T00:09:07.405Z,101293.63
2022-10-12T00:11:36.947Z,101296.31
2022-10-12T00:14:05.965Z,101296.81
2022-10-12T00:16:32.418Z,101291.00
2022-10-12T00:18:59.441Z,101302.19
2022-10-12T00:21:27.851Z,101301.00
2022-10-12T00:23:57.995Z,101295.88
2022-10-12T00:26:25.476Z,101303.16
2022-10-12T00:28:57.563Z,101298.34
2022-10-12T00:31:27.377Z,101298.66
2022-10-12T00:33:54.139Z,101306.53
2022-10-12T00:36:30.061Z,101300.03
2022-10-12T00:38:59.489Z,101303.50
2022-10-12T00:41:29.896Z,101303.16
2022-10-12T00:43:58.529Z,101307.09
2022-10-12T00:46:27.388Z,101306.59
2022-10-12T00:49:17.021Z,101305.28
2022-10-12T00:51:46.685Z,101300.38
2022-10-12T00:54:22.568Z,101302.41
2022-10-12T00:56:52.984Z,101301.28
2022-10-12T00:59:28.625Z,101299.94
2022-10-12T01:01:57.764Z,101300.28
2022-10-12T01:04:24.840Z,101297.19
2022-10-12T01:06:52.657Z,101304.88
2022-10-12T01:09:20.863Z,101303.72
2022-10-12T01:11:48.255Z,101310.38
2022-10-12T01:14:15.077Z,101296.22
2022-10-12T01:16:53.437Z,101304.41
2022-10-12T01:19:25.832Z,101299.63
2022-10-12T01:22:02.025Z,101303.91
2022-10-12T01:24:31.606Z,101303.72
2022-10-12T01:27:27.495Z,101306.47
2022-10-12T01:30:06.064Z,101301.00
2022-10-12T01:32:46.292Z,101302.00
2022-10-12T01:35:16.257Z,101299.28
2022-10-12T01:38:41.764Z,101295.03
2022-10-12T01:41:32.288Z,101296.38
2022-10-12T01:43:58.708Z,101288.38
2022-10-12T01:46:25.025Z,101286.66
2022-10-12T01:48:55.965Z,101291.28
2022-10-12T01:51:28.343Z,101284.94
2022-10-12T01:54:03.648Z,101289.03
2022-10-12T01:56:59.335Z,101285.63
2022-10-12T01:59:43.239Z,101289.88
2022-10-12T02:02:26.563Z,101285.09
2022-10-12T02:05:01.699Z,101277.41
2022-10-12T02:07:45.558Z,101281.69
2022-10-12T02:10:21.420Z,101284.03
2022-10-12T02:12:50.137Z,101280.28
2022-10-12T02:15:17.593Z,101281.44
2022-10-12T02:17:48.066Z,101284.66
2022-10-12T02:20:20.701Z,101282.06
2022-10-12T02:22:50.921Z,101278.31
2022-10-12T02:25:21.533Z,101276.59
2022-10-12T02:27:59.004Z,101276.25
2022-10-12T02:30:26.503Z,101280.66
2022-10-12T02:33:08.562Z,101277.56
2022-10-12T02:35:39.361Z,101271.09
2022-10-12T02:38:32.694Z,101270.47
2022-10-12T02:41:04.811Z,101267.31
2022-10-12T02:43:42.934Z,101269.19
2022-10-12T02:46:10.737Z,101270.06
2022-10-12T02:48:40.353Z,101268.38
2022-10-12T02:51:09.929Z,101265.78
2022-10-12T02:53:36.544Z,101262.63
2022-10-12T02:56:05.801Z,101262.13
2022-10-12T02:58:32.332Z,101268.75
2022-10-12T03:00:58.922Z,101257.84
2022-10-12T03:03:25.440Z,101263.28
2022-10-12T03:05:52.261Z,101265.16
2022-10-12T03:08:21.129Z,101259.72
2022-10-12T03:10:47.498Z,101260.88
2022-10-12T03:13:13.931Z,101260.34
2022-10-12T03:15:40.399Z,101258.47
2022-10-12T03:18:11.407Z,101259.16
2022-10-12T03:20:37.787Z,101259.16
2022-10-12T03:23:04.196Z,101260.19
2022-10-12T03:25:30.802Z,101254.75
2022-10-12T03:27:57.271Z,101260.50
2022-10-12T03:30:23.667Z,101251.50
2022-10-12T03:32:50.082Z,101259.16
2022-10-12T03:35:16.651Z,101246.53
2022-10-12T03:37:42.991Z,101250.78
2022-10-12T03:40:10.197Z,101257.44
2022-10-12T03:42:39.035Z,101270.34
2022-10-12T03:45:05.803Z,101267.63
2022-10-12T03:47:32.374Z,101263.22
2022-10-12T03:49:58.790Z,101264.03
2022-10-12T03:52:25.313Z,101264.69
2022-10-12T03:54:53.984Z,101263.84
2022-10-12T03:57:25.239Z,101272.19
2022-10-12T03:59:51.715Z,101264.16
2022-10-12T04:02:20.462Z,101266.03
2022-10-12T04:04:49.343Z,101263.66
2022-10-12T04:07:15.735Z,101271.63
2022-10-12T04:09:47.589Z,101272.63
2022-10-12T04:12:14.187Z,101270.06
2022-10-12T04:14:40.730Z,101272.56
2022-10-12T04:17:07.259Z,101272.91
2022-10-12T04:19:35.939Z,101278.50
2022-10-12T04:22:02.360Z,101272.53
2022-10-12T04:24:32.801Z,101271.47
2022-10-12T04:27:01.919Z,101276.44
2022-10-12T04:29:28.371Z,101281.88
2022-10-12T04:31:55.009Z,101279.63
2022-10-12T04:34:21.475Z,101282.03
2022-10-12T04:36:47.952Z,101278.78
2022-10-12T04:39:14.349Z,101286.41
2022-10-12T04:41:43.206Z,101293.03
2022-10-12T04:44:11.845Z,101291.50
2022-10-12T04:46:38.285Z,101291.44
2022-10-12T04:49:04.692Z,101291.19
2022-10-12T04:51:31.174Z,101295.41
2022-10-12T04:53:57.592Z,101287.16
2022-10-12T04:56:24.132Z,101293.06
2022-10-12T04:58:50.556Z,101301.25
2022-10-12T05:01:17.078Z,101299.00
2022-10-12T05:03:43.568Z,101296.59
2022-10-12T05:06:10.059Z,101286.19
2022-10-12T05:08:36.622Z,101287.66
2022-10-12T05:11:03.133Z,101282.91
2022-10-12T05:13:29.928Z,101285.25
2022-10-12T05:16:01.315Z,101285.56
2022-10-12T05:18:28.339Z,101283.47
2022-10-12T05:20:57.216Z,101281.06
2022-10-12T05:23:26.090Z,101281.06
2022-10-12T05:25:55.870Z,101285.09
2022-10-12T05:28:22.885Z,101280.38
2022-10-12T05:30:50.886Z,101281.19
2022-10-12T05:33:18.034Z,101284.50
2022-10-12T05:35:48.157Z,101283.00
2022-10-12T05:38:16.597Z,101283.84
2022-10-12T05:40:43.705Z,101287.97
2022-10-12T05:43:10.136Z,101285.56
2022-10-12T05:45:39.052Z,101286.47
2022-10-12T05:48:07.957Z,101292.69
2022-10-12T05:50:34.397Z,101291.88
2022-10-12T05:53:00.877Z,101297.13
2022-10-12T05:55:29.972Z,101298.09
2022-10-12T05:57:56.335Z,101301.94
2022-10-12T06:00:22.865Z,101307.09
2022-10-12T06:02:51.997Z,101308.50
2022-10-12T06:05:18.513Z,101304.81
2022-10-12T06:07:44.944Z,101306.22
2022-10-12T06:10:12.079Z,101301.97
2022-10-12T06:12:41.361Z,101293.16
2022-10-12T06:15:08.616Z,101305.03
2022-10-12T06:17:35.024Z,101306.75
2022-10-12T06:20:06.208Z,101300.00
2022-10-12T06:22:32.568Z,101304.03
2022-10-12T06:24:59.103Z,101310.19
2022-10-12T06:27:27.988Z,101318.03
2022-10-12T06:29:54.345Z,101314.06
2022-10-12T06:32:20.778Z,101303.44
2022-10-12T06:34:47.217Z,101306.69
2022-10-12T06:37:37.049Z,101311.81
2022-10-12T06:40:00.178Z,101316.31
2022-10-12T06:42:26.578Z,101314.47
2022-10-12T06:44:52.964Z,101321.28
2022-10-12T06:47:19.344Z,101310.47
2022-10-12T06:49:45.706Z,101318.66
2022-10-12T06:52:12.097Z,101314.34
2022-10-12T06:54:38.593Z,101318.97
2022-10-12T06:57:07.510Z,101316.53
2022-10-12T06:59:36.522Z,101319.59
2022-10-12T07:02:03.013Z,101312.09
2022-10-12T07:04:29.424Z,101312.69
2022-10-12T07:06:55.855Z,101311.09
2022-10-12T07:09:27.145Z,101311.75
2022-10-12T07:11:54.277Z,101311.91
2022-10-12T07:14:20.754Z,101312.78
2022-10-12T07:16:51.651Z,101309.56
2022-10-12T07:19:20.660Z,101309.56
2022-10-12T07:21:47.089Z,101319.53
2022-10-12T07:24:13.524Z,101306.44
2022-10-12T07:26:39.932Z,101309.03
2022-10-12T07:29:06.564Z,101317.22
2022-10-12T07:31:33.481Z,101316.63
2022-10-12T07:34:02.403Z,101318.34
2022-10-12T07:36:47.255Z,101309.53
2022-10-12T07:39:17.679Z,101315.94
2022-10-12T07:41:44.100Z,101315.25
2022-10-12T07:44:11.701Z,101317.69
2022-10-12T07:46:38.215Z,101325.34
2022-10-12T07:49:04.639Z,101313.31
2022-10-12T07:51:31.381Z,101315.19
2022-10-12T07:54:00.414Z,101310.44
2022-10-12T07:56:27.093Z,101320.22
2022-10-12T07:58:56.191Z,101319.59
2022-10-12T08:01:25.850Z,101322.41
2022-10-12T08:03:56.339Z,101320.56
2022-10-12T08:06:28.363Z,101318.06
2022-10-12T08:08:55.281Z,101309.03
2022-10-12T08:11:22.337Z,101309.88
2022-10-12T08:13:49.060Z,101319.09
2022-10-12T08:16:18.868Z,101314.50
2022-10-12T08:18:45.481Z,101310.22
2022-10-12T08:21:14.139Z,101317.56
2022-10-12T08:23:44.427Z,101313.66
2022-10-12T08:26:16.381Z,101316.22
2022-10-12T08:28:43.774Z,101318.97
2022-10-12T08:31:13.593Z,101309.22
2022-10-12T08:33:40.403Z,101317.75
2022-10-12T08:36:07.649Z,101316.22
2022-10-12T08:38:43.515Z,101317.94
2022-10-12T08:41:34.309Z,101323.03
2022-10-12T08:44:06.690Z,101316.00
2022-10-12T08:46:33.216Z,101317.56
2022-10-12T08:49:06.015Z,101315.63
2022-10-12T08:51:41.748Z,101316.97
2022-10-12T08:54:15.468Z,101314.06
2022-10-12T08:56:42.024Z,101314.47
2022-10-12T08:59:18.957Z,101308.41
2022-10-12T09:02:02.084Z,101305.53
2022-10-12T09:04:47.021Z,101317.09
2022-10-12T09:07:39.541Z,101315.16
2022-10-12T09:10:13.129Z,101322.44
2022-10-12T09:12:45.903Z,101324.84
2022-10-12T09:15:18.298Z,101326.97
2022-10-12T09:17:52.556Z,101326.59
2022-10-12T09:20:51.574Z,101332.31
2022-10-12T09:23:34.866Z,101326.97
2022-10-12T09:26:14.187Z,101325.16
2022-10-12T09:28:44.331Z,101331.28
2022-10-12T09:31:10.707Z,101337.94
2022-10-12T09:33:51.983Z,101323.09
2022-10-12T09:36:22.228Z,101328.69
2022-10-12T09:38:49.835Z,101346.59
2022-10-12T09:41:30.957Z,101327.72
2022-10-12T09:44:00.495Z,101321.28
2022-10-12T09:46:48.210Z,101316.72
2022-10-12T09:49:14.614Z,101312.19
2022-10-12T09:51:41.216Z,101327.66
2022-10-12T09:54:19.419Z,101322.91
2022-10-12T09:56:51.197Z,101322.84
2022-10-12T09:59:30.357Z,101323.16
2022-10-12T10:02:14.965Z,101326.53
2022-10-12T10:04:44.207Z,101315.09
2022-10-12T10:07:20.533Z,101316.91
2022-10-12T10:09:47.898Z,101316.38
2022-10-12T10:12:22.727Z,101322.97
2022-10-12T10:14:54.057Z,101320.63
2022-10-12T10:17:27.155Z,101328.38
2022-10-12T10:19:56.026Z,101324.91
2022-10-12T10:22:23.735Z,101322.91
2022-10-12T10:25:00.202Z,101326.59
2022-10-12T10:27:39.797Z,101319.69
2022-10-12T10:30:29.886Z,101329.06
2022-10-12T10:33:14.420Z,101323.53
2022-10-12T10:35:41.310Z,101329.94
2022-10-12T10:38:15.789Z,101324.38
2022-10-12T10:40:42.277Z,101317.44
2022-10-12T10:43:24.946Z,101333.19
2022-10-12T10:46:03.572Z,101333.53
2022-10-12T10:48:50.951Z,101324.16
2022-10-12T10:51:19.792Z,101315.84
2022-10-12T10:53:48.248Z,101316.59
2022-10-12T10:56:20.377Z,101312.91
2022-10-12T10:58:56.795Z,101307.66
2022-10-12T11:01:35.820Z,101310.00
2022-10-12T11:04:16.196Z,101290.91
2022-10-12T11:06:47.508Z,101300.28
2022-10-12T11:09:19.709Z,101295.25
2022-10-12T11:11:53.832Z,101280.56
2022-10-12T11:14:25.500Z,101278.53
2022-10-12T11:17:05.162Z,101285.63
2022-10-12T11:19:42.211Z,101275.94
2022-10-12T11:22:40.891Z,101280.00
2022-10-12T11:25:33.913Z,101277.06
2022-10-12T11:28:00.601Z,101269.91
2022-10-12T11:30:35.938Z,101269.25
2022-10-12T11:33:25.954Z,101259.50
2022-10-12T11:35:54.651Z,101264.53
2022-10-12T11:38:39.946Z,101261.16
2022-10-12T11:42:09.828Z,101260.31
2022-10-12T11:44:41.305Z,101240.91
2022-10-12T11:47:14.065Z,101236.69
2022-10-12T11:49:43.422Z,101235.72
2022-10-12T11:52:11.315Z,101239.06
2022-10-12T11:54:56.480Z,101241.38
2022-10-12T11:57:34.655Z,101224.31
2022-10-12T12:00:22.868Z,101233.22
2022-10-12T12:03:15.323Z,101224.59
2022-10-12T12:05:41.758Z,101221.84
2022-10-12T12:08:43.531Z,101223.59
2022-10-12T12:11:22.287Z,101225.53
2022-10-12T12:13:48.804Z,101220.84
2022-10-12T12:16:18.168Z,101219.81
2022-10-12T12:19:18.065Z,101215.78
2022-10-12T12:22:18.873Z,101203.28
2022-10-12T12:25:15.598Z,101198.06
2022-10-12T12:27:52.375Z,101197.69
2022-10-12T12:30:18.957Z,101197.94
2022-10-12T12:32:52.693Z,101185.25
2022-10-12T12:35:26.810Z,101189.09
2022-10-12T12:38:11.234Z,101186.16
2022-10-12T12:40:40.264Z,101169.59
2022-10-12T12:43:47.296Z,101170.88
2022-10-12T12:46:15.359Z,101173.44
2022-10-12T12:48:41.847Z,101164.13
2022-10-12T12:51:15.151Z,101158.22
2022-10-12T12:53:50.776Z,101159.94
2022-10-12T12:56:30.926Z,101162.72
2022-10-12T12:59:09.244Z,101166.75
2022-10-12T13:02:12.890Z,101158.31
2022-10-12T13:05:07.407Z,101146.66
2022-10-12T13:08:11.455Z,101146.47
2022-10-12T13:10:56.591Z,101151.09
2022-10-12T13:13:48.677Z,101157.06
2022-10-12T13:19:41.574Z,101147.31
2022-10-12T13:22:20.928Z,101155.38
2022-10-12T13:24:51.961Z,101156.22
2022-10-12T13:27:23.651Z,101153.25
2022-10-12T13:30:38.994Z,101151.13
2022-10-12T13:33:14.188Z,101138.38
2022-10-12T13:35:47.309Z,101148.78
2022-10-12T13:38:23.894Z,101158.53
2022-10-12T13:41:16.266Z,101146.44
2022-10-12T13:43:50.704Z,101144.31
2022-10-12T13:46:42.132Z,101162.13
2022-10-12T13:49:21.960Z,101140.03
2022-10-12T13:51:57.468Z,101149.84
2022-10-12T13:54:46.099Z,101130.09
2022-10-12T13:57:37.023Z,101145.75
2022-10-12T14:00:18.653Z,101150.84
2022-10-12T14:02:55.910Z,101146.34
2022-10-12T14:05:24.548Z,101166.97
2022-10-12T14:07:59.671Z,101142.50
2022-10-12T14:10:35.302Z,101141.41
2022-10-12T14:13:02.531Z,101136.09
2022-10-12T14:15:33.589Z,101135.25
2022-10-12T14:18:00.114Z,101155.22
2022-10-12T14:20:26.526Z,101140.53
2022-10-12T14:22:57.211Z,101145.41
2022-10-12T14:25:28.976Z,101141.16
2022-10-12T14:27:59.878Z,101144.09
2022-10-12T14:30:34.166Z,101122.63
2022-10-12T14:33:21.002Z,101129.59
2022-10-12T14:35:49.302Z,101133.81
2022-10-12T14:38:42.390Z,101137.00
2022-10-12T14:41:44.574Z,101130.84
2022-10-12T14:44:13.683Z,101144.53
2022-10-12T14:47:02.686Z,101130.50
2022-10-12T14:49:40.679Z,101123.72
2022-10-12T14:52:13.556Z,101115.25
2022-10-12T14:54:43.258Z,101122.75
2022-10-12T14:57:15.207Z,101122.09
2022-10-12T14:59:41.842Z,101117.66
2022-10-12T15:02:32.542Z,101117.25
2022-10-12T15:04:59.809Z,101113.72
2022-10-12T15:07:31.166Z,101110.50
2022-10-12T15:09:57.623Z,101106.56
2022-10-12T15:12:25.116Z,101100.19
2022-10-12T15:15:02.480Z,101095.53
2022-10-12T15:17:28.934Z,101086.81
2022-10-12T15:19:55.389Z,101086.41
2022-10-12T15:22:26.852Z,101093.41
2022-10-12T15:24:54.700Z,101089.84
2022-10-12T15:27:23.910Z,101101.06
2022-10-12T15:29:50.449Z,101105.56
2022-10-12T15:32:18.265Z,101101.94
2022-10-12T15:34:45.221Z,101097.50
2022-10-12T15:37:14.621Z,101102.38
2022-10-12T15:39:43.226Z,101103.44
2022-10-12T15:42:12.177Z,101110.84
2022-10-12T15:44:40.942Z,101102.38
2022-10-12T15:47:12.069Z,101097.69
2022-10-12T15:49:41.003Z,101092.44
2022-10-12T15:52:11.526Z,101083.09
2022-10-12T15:54:39.094Z,101079.28
2022-10-12T15:57:06.979Z,101080.34
2022-10-12T15:59:33.988Z,101083.25
2022-10-12T16:02:00.480Z,101095.09
2022-10-12T16:04:26.907Z,101084.69
2022-10-12T16:06:53.432Z,101091.47
2022-10-12T16:09:19.818Z,101086.75
2022-10-12T16:11:46.307Z,101087.34
2022-10-12T16:14:14.401Z,101082.66
2022-10-12T16:16:40.763Z,101078.00
2022-10-12T16:19:08.540Z,101072.66
2022-10-12T16:21:35.180Z,101086.81
2022-10-12T16:24:01.589Z,101082.97
2022-10-12T16:26:28.543Z,101072.09
2022-10-12T16:28:55.512Z,101073.66
2022-10-12T16:31:22.118Z,101081.22
2022-10-12T16:33:50.957Z,101075.91
2022-10-12T16:36:17.701Z,101077.78
2022-10-12T16:38:45.035Z,101072.63
2022-10-12T16:41:13.711Z,101072.34
2022-10-12T16:43:40.930Z,101080.53
2022-10-12T16:46:08.332Z,101079.56
2022-10-12T16:48:35.412Z,101089.25
2022-10-12T16:51:05.534Z,101091.03
2022-10-12T16:53:34.376Z,101081.91
2022-10-12T16:56:00.857Z,101087.75
2022-10-12T16:58:27.542Z,101091.25
2022-10-12T17:00:54.007Z,101091.59
2022-10-12T17:03:20.400Z,101086.59
2022-10-12T17:05:46.858Z,101092.84
2022-10-12T17:08:15.908Z,101091.94
2022-10-12T17:10:44.300Z,101083.81
2022-10-12T17:13:11.047Z,101095.56
2022-10-12T17:15:41.972Z,101087.47
2022-10-12T17:18:09.187Z,101092.66
2022-10-12T17:20:36.557Z,101100.53
2022-10-12T17:23:03.667Z,101094.38
2022-10-12T17:25:30.190Z,101097.22
2022-10-12T17:27:56.817Z,101095.25
2022-10-12T17:30:23.281Z,101095.56
2022-10-12T17:32:49.682Z,101091.06
2022-10-12T17:35:16.247Z,101084.59
2022-10-12T17:37:42.629Z,101094.44
2022-10-12T17:40:10.590Z,101099.00
2022-10-12T17:42:37.046Z,101091.34
2022-10-12T17:45:03.785Z,101094.38
2022-10-12T17:47:30.238Z,101092.84
2022-10-12T17:49:56.686Z,101094.47
2022-10-12T17:52:23.068Z,101094.00
2022-10-12T17:54:49.433Z,101101.22
2022-10-12T17:57:16.295Z,101097.81
2022-10-12T17:59:45.975Z,101092.88
2022-10-12T18:02:12.401Z,101095.34
2022-10-12T18:04:38.871Z,101102.22
2022-10-12T18:07:05.351Z,101100.69
2022-10-12T18:09:31.719Z,101113.28
2022-10-12T18:11:58.075Z,101114.03
2022-10-12T18:14:24.556Z,101117.69
2022-10-12T18:16:51.030Z,101114.28
2022-10-12T18:19:17.474Z,101112.28
2022-10-12T18:21:44.090Z,101117.09
2022-10-12T18:24:16.908Z,101116.44
2022-10-12T18:26:47.497Z,101116.97
2022-10-12T18:29:14.437Z,101119.41
2022-10-12T18:31:41.280Z,101116.66
2022-10-12T18:34:07.997Z,101111.56
2022-10-12T18:36:34.465Z,101110.44
2022-10-12T18:39:02.419Z,101121.56
2022-10-12T18:41:34.399Z,101121.56
2022-10-12T18:44:02.288Z,101104.66
2022-10-12T18:46:30.881Z,101105.50
2022-10-12T18:48:57.759Z,101112.91
2022-10-12T18:51:27.861Z,101107.44
2022-10-12T18:53:55.542Z,101114.81
2022-10-12T18:56:22.054Z,101120.00
2022-10-12T18:58:48.833Z,101115.53
2022-10-12T19:01:20.633Z,101118.66
2022-10-12T19:03:48.450Z,101112.50
2022-10-12T19:06:20.846Z,101104.28
2022-10-12T19:08:50.659Z,101108.09
2022-10-12T19:11:19.984Z,101098.34
2022-10-12T19:14:02.302Z,101095.31
2022-10-12T19:16:29.343Z,101102.94
2022-10-12T19:18:57.856Z,101105.41
2022-10-12T19:21:24.819Z,101113.28
2022-10-12T19:23:51.309Z,101116.22
2022-10-12T19:26:23.076Z,101113.31
2022-10-12T19:28:50.397Z,101119.53
2022-10-12T19:31:22.284Z,101115.44
2022-10-12T19:33:48.941Z,101116.66
2022-10-12T19:36:18.344Z,101111.25
2022-10-12T19:38:47.798Z,101103.75
2022-10-12T19:41:15.039Z,101107.38
2022-10-12T19:43:43.239Z,101100.56
2022-10-12T19:46:11.817Z,101100.56
2022-10-12T19:48:38.943Z,101107.72
2022-10-12T19:51:08.414Z,101106.75
2022-10-12T19:53:39.905Z,101100.63
2022-10-12T19:56:13.887Z,101096.91
2022-10-12T19:58:41.860Z,101098.41
2022-10-12T20:01:17.790Z,101093.34
2022-10-12T20:03:50.881Z,101093.34
2022-10-12T20:06:18.662Z,101092.69
2022-10-12T20:08:46.022Z,101100.03
2022-10-12T20:11:18.282Z,101107.88
2022-10-12T20:13:49.081Z,101110.44
2022-10-12T20:16:17.987Z,101101.56
2022-10-12T20:18:45.263Z,101118.50
2022-10-12T20:21:14.239Z,101118.16
2022-10-12T20:23:42.499Z,101108.59
2022-10-12T20:26:12.171Z,101109.63
2022-10-12T20:28:38.771Z,101115.78
2022-10-12T20:31:06.732Z,101116.13
2022-10-12T20:33:35.031Z,101117.31
2022-10-12T20:36:02.137Z,101111.53
2022-10-12T20:38:28.536Z,101117.31
2022-10-12T20:41:02.968Z,101117.88
2022-10-12T20:43:29.413Z,101111.41
2022-10-12T20:45:55.819Z,101105.25
2022-10-12T20:48:22.742Z,101107.13
2022-10-12T20:50:49.098Z,101109.19
2022-10-12T20:53:15.497Z,101106.97
2022-10-12T20:55:42.020Z,101105.44
2022-10-12T20:58:12.962Z,101108.00
2022-10-12T21:00:41.949Z,101102.03
2022-10-12T21:03:08.484Z,101095.38
2022-10-12T21:05:35.204Z,101092.50
2022-10-12T21:08:01.918Z,101097.25
2022-10-12T21:10:30.919Z,101096.91
2022-10-12T21:12:59.649Z,101100.97
2022-10-12T21:15:26.129Z,101098.94
2022-10-12T21:17:52.669Z,101103.06
2022-10-12T21:20:19.053Z,101108.50
2022-10-12T21:22:48.723Z,101104.22
2022-10-12T21:25:15.247Z,101107.63
2022-10-12T21:27:41.645Z,101106.47
2022-10-12T21:30:10.637Z,101109.69
2022-10-12T21:32:37.052Z,101103.38
2022-10-12T21:35:03.700Z,101109.69
2022-10-12T21:37:30.182Z,101107.97
2022-10-12T21:39:56.655Z,101109.00
2022-10-12T21:42:23.188Z,101112.06
2022-10-12T21:44:50.150Z,101115.47
2022-10-12T21:47:19.316Z,101114.63
2022-10-12T21:49:45.734Z,101104.69
2022-10-12T21:52:12.121Z,101106.88
2022-10-12T21:54:40.231Z,101106.22
2022-10-12T21:57:06.671Z,101101.94
2022-10-12T21:59:33.259Z,101108.59
2022-10-12T22:01:59.908Z,101109.44
2022-10-12T22:04:27.514Z,101109.94
2022-10-12T22:06:58.348Z,101109.94
2022-10-12T22:09:26.975Z,101109.25
2022-10-12T22:11:53.982Z,101101.06
2022-10-12T22:14:20.445Z,101107.38
2022-10-12T22:16:46.989Z,101110.09
2022-10-12T22:19:18.581Z,101107.06
2022-10-12T22:21:47.539Z,101104.50
2022-10-12T22:24:14.302Z,101109.28
2022-10-12T22:26:41.122Z,101110.53
2022-10-12T22:29:08.685Z,101102.69
2022-10-12T22:31:38.972Z,101110.88
2022-10-12T22:34:05.947Z,101108.34
2022-10-12T22:36:33.519Z,101108.34
2022-10-12T22:39:00.149Z,101101.16
2022-10-12T22:41:29.329Z,101096.41
2022-10-12T22:43:56.891Z,101093.66
2022-10-12T22:46:25.529Z,101094.53
2022-10-12T22:48:54.621Z,101097.06
2022-10-12T22:51:28.676Z,101091.28
2022-10-12T22:54:00.326Z,101095.38
2022-10-12T22:56:27.406Z,101102.00
2022-10-12T22:59:03.419Z,101097.06
2022-10-12T23:01:30.204Z,101099.44
2022-10-12T23:03:56.639Z,101101.00
2022-10-12T23:06:23.467Z,101103.00
2022-10-12T23:08:50.058Z,101113.41
2022-10-12T23:11:22.867Z,101115.44
2022-10-12T23:13:49.572Z,101126.50
2022-10-12T23:16:24.590Z,101127.72
2022-10-12T23:18:59.656Z,101117.81
2022-10-12T23:21:27.275Z,101121.41
2022-10-12T23:23:53.776Z,101123.78
2022-10-12T23:26:24.622Z,101122.25
2022-10-12T23:28:51.613Z,101126.34
2022-10-12T23:31:29.838Z,101116.81
2022-10-12T23:34:02.135Z,101123.13
2022-10-12T23:36:28.638Z,101122.13
2022-10-12T23:38:55.291Z,101116.31
2022-10-12T23:41:21.779Z,101110.88
2022-10-12T23:43:48.204Z,101116.84
2022-10-12T23:46:14.723Z,101114.28
2022-10-12T23:48:41.455Z,101103.88
2022-10-12T23:51:11.288Z,101107.31
2022-10-12T23:53:38.473Z,101098.28
2022-10-12T23:56:06.178Z,101102.34
2022-10-12T23:58:32.636Z,101110.88
